createdAt,value
2018-10-18T00:00:40.437Z,13.98
2018-10-18T00:01:40.247Z,14.46
2018-10-18T00:02:40.287Z,14.46
2018-10-18T00:03:40.333Z,14.84
2018-10-18T00:04:40.363Z,15.41
2018-10-18T00:05:40.404Z,15.79
2018-10-18T00:06:40.442Z,16.46
2018-10-18T00:07:40.480Z,15.60
2018-10-18T00:08:40.520Z,15.60
2018-10-18T00:09:40.560Z,16.17
2018-10-18T00:10:40.598Z,15.88
2018-10-18T00:11:40.641Z,15.50
2018-10-18T00:12:40.679Z,16.08
2018-10-18T00:13:40.717Z,16.08
2018-10-18T00:14:40.755Z,16.27
2018-10-18T00:15:40.797Z,16.55
2018-10-18T00:16:40.847Z,16.36
2018-10-18T00:17:40.873Z,16.17
2018-10-18T00:18:40.913Z,15.61
2018-10-18T00:19:40.952Z,15.69
2018-10-18T00:20:40.991Z,15.79
2018-10-18T00:21:41.030Z,15.99
2018-10-18T00:22:41.070Z,15.23
2018-10-18T00:23:41.116Z,15.31
2018-10-18T00:24:41.157Z,15.03
2018-10-18T00:25:41.186Z,14.94
2018-10-18T00:26:41.224Z,14.94
2018-10-18T00:27:41.263Z,15.22
2018-10-18T00:28:41.305Z,15.32
2018-10-18T00:29:41.343Z,14.94
2018-10-18T00:30:41.383Z,15.70
2018-10-18T00:31:41.419Z,15.61
2018-10-18T00:32:41.459Z,15.42
2018-10-18T00:33:41.498Z,15.51
2018-10-18T00:34:41.537Z,15.32
2018-10-18T00:35:41.581Z,15.23
2018-10-18T00:36:41.621Z,15.51
2018-10-18T00:37:41.654Z,15.51
2018-10-18T00:38:41.695Z,15.42
2018-10-18T00:39:41.731Z,15.13
2018-10-18T00:40:41.771Z,14.37
2018-10-18T00:41:41.811Z,14.18
2018-10-18T00:42:41.855Z,13.80
2018-10-18T00:43:41.889Z,13.70
2018-10-18T00:44:41.930Z,13.04
2018-10-18T00:45:41.968Z,12.85
2018-10-18T00:46:42.008Z,12.18
2018-10-18T00:47:42.044Z,12.46
2018-10-18T00:48:42.091Z,12.18
2018-10-18T00:49:42.124Z,12.46
2018-10-18T00:50:42.163Z,11.90
2018-10-18T00:51:42.203Z,11.99
2018-10-18T00:52:42.241Z,11.80
2018-10-18T00:53:42.280Z,11.32
2018-10-18T00:54:42.319Z,11.71
2018-10-18T00:55:42.356Z,11.13
2018-10-18T00:56:42.400Z,11.04
2018-10-18T00:57:42.437Z,10.75
2018-10-18T00:58:42.575Z,10.75
2018-10-18T00:59:42.513Z,10.47
2018-10-18T01:00:42.554Z,10.18
2018-10-18T01:01:42.591Z,10.09
2018-10-18T01:02:42.633Z,9.89
2018-10-18T01:03:42.669Z,9.71
2018-10-18T01:04:42.709Z,9.61
2018-10-18T01:05:42.751Z,9.61
2018-10-18T01:06:42.789Z,10.00
2018-10-18T01:07:42.827Z,9.61
2018-10-18T01:08:42.867Z,9.80
2018-10-18T01:09:42.909Z,9.61
2018-10-18T01:10:42.948Z,9.52
2018-10-18T01:11:42.985Z,9.90
2018-10-18T01:12:43.093Z,10.28
2018-10-18T01:13:43.064Z,10.09
2018-10-18T01:14:43.103Z,10.47
2018-10-18T01:15:43.140Z,10.28
2018-10-18T01:16:43.185Z,10.66
2018-10-18T01:17:43.222Z,10.85
2018-10-18T01:18:43.262Z,10.95
2018-10-18T01:19:43.308Z,11.33
2018-10-18T01:20:43.338Z,11.43
2018-10-18T01:21:43.379Z,11.52
2018-10-18T01:22:43.417Z,11.61
2018-10-18T01:23:43.464Z,10.75
2018-10-18T01:24:43.502Z,11.14
2018-10-18T01:25:43.538Z,10.75
2018-10-18T01:26:43.576Z,10.18
2018-10-18T01:27:43.618Z,10.57
2018-10-18T01:28:43.656Z,10.66
2018-10-18T01:29:43.744Z,10.19
2018-10-18T01:30:43.734Z,10.38
2018-10-18T01:31:43.771Z,10.38
2018-10-18T01:32:43.828Z,10.47
2018-10-18T01:33:43.850Z,10.19
2018-10-18T01:34:43.897Z,9.71
2018-10-18T01:35:43.932Z,9.61
2018-10-18T01:36:43.968Z,9.80
2018-10-18T01:37:44.007Z,9.52
2018-10-18T01:38:44.046Z,9.23
2018-10-18T01:39:44.085Z,9.52
2018-10-18T01:40:44.123Z,9.71
2018-10-18T01:41:44.166Z,9.33
2018-10-18T01:42:44.206Z,9.33
2018-10-18T01:43:44.242Z,9.71
2018-10-18T01:44:44.283Z,9.42
2018-10-18T01:45:44.323Z,8.94
2018-10-18T01:46:44.364Z,8.85
2018-10-18T01:47:44.400Z,8.85
2018-10-18T01:48:44.439Z,8.37
2018-10-18T01:49:44.483Z,8.66
2018-10-18T01:50:44.517Z,8.76
2018-10-18T01:51:44.566Z,8.85
2018-10-18T01:52:44.598Z,8.76
2018-10-18T01:53:44.639Z,8.85
2018-10-18T01:54:44.675Z,8.66
2018-10-18T01:55:44.716Z,8.85
2018-10-18T01:56:44.756Z,8.75
2018-10-18T01:57:44.793Z,8.28
2018-10-18T01:58:44.831Z,8.18
2018-10-18T01:59:44.874Z,8.37
2018-10-18T02:00:44.910Z,8.09
2018-10-18T02:01:44.950Z,8.47
2018-10-18T02:02:44.988Z,7.71
2018-10-18T02:03:45.026Z,7.90
2018-10-18T02:04:45.066Z,7.71
2018-10-18T02:05:45.104Z,7.90
2018-10-18T02:06:45.145Z,7.71
2018-10-18T02:07:45.191Z,7.71
2018-10-18T02:08:45.232Z,7.62
2018-10-18T02:09:45.266Z,7.42
2018-10-18T02:10:45.302Z,7.81
2018-10-18T02:11:45.340Z,7.71
2018-10-18T02:12:45.378Z,7.42
2018-10-18T02:13:45.502Z,7.51
2018-10-18T02:14:45.461Z,7.61
2018-10-18T02:15:45.497Z,7.14
2018-10-18T02:16:45.585Z,7.14
2018-10-18T02:17:45.578Z,7.32
2018-10-18T02:18:45.615Z,7.04
2018-10-18T02:19:45.655Z,7.42
2018-10-18T02:20:45.692Z,7.23
2018-10-18T02:21:45.734Z,7.42
2018-10-18T02:22:45.773Z,7.23
2018-10-18T02:23:45.811Z,7.14
2018-10-18T02:24:45.890Z,7.14
2018-10-18T02:25:45.889Z,7.04
2018-10-18T02:26:45.930Z,7.23
2018-10-18T02:27:45.968Z,7.14
2018-10-18T02:28:46.008Z,6.95
2018-10-18T02:29:46.048Z,6.76
2018-10-18T02:30:46.087Z,6.85
2018-10-18T02:31:46.126Z,6.76
2018-10-18T02:32:46.164Z,6.76
2018-10-18T02:33:46.203Z,6.76
2018-10-18T02:34:46.243Z,6.67
2018-10-18T02:35:46.281Z,6.38
2018-10-18T02:36:46.339Z,6.57
2018-10-18T02:37:46.361Z,6.67
2018-10-18T02:38:46.400Z,6.95
2018-10-18T02:39:46.438Z,6.76
2018-10-18T02:40:46.476Z,6.76
2018-10-18T02:41:46.525Z,6.67
2018-10-18T02:42:46.558Z,6.47
2018-10-18T02:43:46.596Z,6.67
2018-10-18T02:44:46.634Z,6.85
2018-10-18T02:45:46.674Z,7.23
2018-10-18T02:46:46.715Z,6.95
2018-10-18T02:47:46.754Z,7.04
2018-10-18T02:48:46.792Z,6.85
2018-10-18T02:49:46.831Z,6.47
2018-10-18T02:50:46.872Z,6.76
2018-10-18T02:51:46.910Z,6.47
2018-10-18T02:52:46.950Z,6.67
2018-10-18T02:53:46.989Z,6.67
2018-10-18T02:54:47.028Z,6.47
2018-10-18T02:55:47.074Z,6.76
2018-10-18T02:56:47.105Z,6.67
2018-10-18T02:57:47.146Z,6.67
2018-10-18T02:58:47.192Z,6.57
2018-10-18T02:59:47.284Z,6.47
2018-10-18T03:00:47.262Z,6.57
2018-10-18T03:01:47.302Z,6.95
2018-10-18T03:02:47.342Z,6.85
2018-10-18T03:03:47.380Z,6.85
2018-10-18T03:04:47.420Z,6.57
2018-10-18T03:05:47.460Z,6.38
2018-10-18T03:06:47.499Z,6.47
2018-10-18T03:07:47.542Z,6.38
2018-10-18T03:08:47.579Z,6.47
2018-10-18T03:09:47.617Z,6.47
2018-10-18T03:10:47.656Z,6.57
2018-10-18T03:11:47.695Z,6.28
2018-10-18T03:12:47.735Z,6.38
2018-10-18T03:13:47.776Z,5.90
2018-10-18T03:14:47.820Z,6.19
2018-10-18T03:15:47.872Z,6.28
2018-10-18T03:16:47.891Z,6.28
2018-10-18T03:17:47.931Z,5.71
2018-10-18T03:18:47.972Z,5.80
2018-10-18T03:19:48.009Z,5.80
2018-10-18T03:20:48.056Z,6.09
2018-10-18T03:21:48.089Z,6.09
2018-10-18T03:22:48.127Z,6.09
2018-10-18T03:23:48.176Z,5.90
2018-10-18T03:24:48.209Z,5.80
2018-10-18T03:25:48.246Z,5.71
2018-10-18T03:26:48.288Z,5.71
2018-10-18T03:27:48.329Z,5.80
2018-10-18T03:28:48.364Z,5.71
2018-10-18T03:29:48.405Z,5.80
2018-10-18T03:30:48.442Z,5.71
2018-10-18T03:31:48.482Z,6.09
2018-10-18T03:32:48.528Z,5.80
2018-10-18T03:33:48.562Z,6.28
2018-10-18T03:34:48.601Z,6.19
2018-10-18T03:35:48.638Z,5.99
2018-10-18T03:36:48.678Z,6.19
2018-10-18T03:37:48.719Z,6.09
2018-10-18T03:38:48.757Z,6.19
2018-10-18T03:39:48.796Z,6.09
2018-10-18T03:40:48.837Z,6.19
2018-10-18T03:41:48.876Z,6.19
2018-10-18T03:42:48.914Z,6.19
2018-10-18T03:43:48.958Z,6.09
2018-10-18T03:44:48.993Z,6.38
2018-10-18T03:45:49.034Z,6.85
2018-10-18T03:46:49.073Z,7.23
2018-10-18T03:47:49.112Z,7.23
2018-10-18T03:48:49.151Z,7.52
2018-10-18T03:49:49.192Z,8.00
2018-10-18T03:50:49.231Z,7.71
2018-10-18T03:51:49.270Z,8.18
2018-10-18T03:52:49.312Z,8.18
2018-10-18T03:53:49.349Z,8.18
2018-10-18T03:54:49.397Z,8.09
2018-10-18T03:55:49.427Z,8.00
2018-10-18T03:56:49.469Z,8.09
2018-10-18T03:57:49.507Z,8.09
2018-10-18T03:58:49.548Z,8.47
2018-10-18T03:59:49.667Z,8.28
2018-10-18T04:00:49.625Z,8.47
2018-10-18T04:01:49.670Z,8.76
2018-10-18T04:02:49.709Z,8.37
2018-10-18T04:03:49.760Z,8.85
2018-10-18T04:04:49.789Z,8.66
2018-10-18T04:05:49.821Z,8.85
2018-10-18T04:06:49.865Z,8.66
2018-10-18T04:07:49.901Z,8.76
2018-10-18T04:08:49.951Z,9.05
2018-10-18T04:09:49.981Z,8.95
2018-10-18T04:10:50.022Z,8.76
2018-10-18T04:11:50.058Z,8.85
2018-10-18T04:12:50.123Z,8.85
2018-10-18T04:13:50.143Z,8.76
2018-10-18T04:14:50.179Z,8.85
2018-10-18T04:15:50.217Z,8.28
2018-10-18T04:16:50.255Z,8.28
2018-10-18T04:17:50.327Z,8.76
2018-10-18T04:18:50.340Z,8.47
2018-10-18T04:19:50.375Z,8.09
2018-10-18T04:20:50.414Z,8.00
2018-10-18T04:21:50.462Z,7.90
2018-10-18T04:22:50.496Z,7.71
2018-10-18T04:23:50.532Z,7.90
2018-10-18T04:24:50.572Z,7.81
2018-10-18T04:25:50.613Z,7.71
2018-10-18T04:26:50.653Z,7.90
2018-10-18T04:27:50.698Z,7.90
2018-10-18T04:28:50.736Z,8.28
2018-10-18T04:29:50.770Z,8.18
2018-10-18T04:30:50.808Z,8.28
2018-10-18T04:31:50.847Z,8.28
2018-10-18T04:32:50.887Z,8.37
2018-10-18T04:33:50.927Z,8.75
2018-10-18T04:34:50.969Z,8.66
2018-10-18T04:35:51.003Z,8.85
2018-10-18T04:36:51.047Z,8.85
2018-10-18T04:37:51.083Z,8.66
2018-10-18T04:38:51.123Z,8.18
2018-10-18T04:39:51.162Z,8.18
2018-10-18T04:40:51.201Z,8.09
2018-10-18T04:41:51.256Z,8.09
2018-10-18T04:42:51.281Z,8.09
2018-10-18T04:43:51.324Z,8.09
2018-10-18T04:44:51.359Z,8.28
2018-10-18T04:45:51.399Z,8.56
2018-10-18T04:46:51.438Z,8.47
2018-10-18T04:47:51.570Z,8.47
2018-10-18T04:48:51.575Z,8.28
2018-10-18T04:49:51.556Z,8.18
2018-10-18T04:50:51.595Z,7.99
2018-10-18T04:51:51.638Z,8.18
2018-10-18T04:52:51.674Z,8.28
2018-10-18T04:53:51.713Z,8.09
2018-10-18T04:54:51.776Z,8.37
2018-10-18T04:55:51.792Z,8.37
2018-10-18T04:56:51.883Z,8.18
2018-10-18T04:57:51.872Z,7.90
2018-10-18T04:58:51.914Z,8.47
2018-10-18T04:59:51.950Z,8.18
2018-10-18T05:00:52.032Z,7.80
2018-10-18T05:01:52.028Z,8.00
2018-10-18T05:02:52.122Z,7.71
2018-10-18T05:03:52.106Z,7.90
2018-10-18T05:04:52.167Z,7.52
2018-10-18T05:05:52.185Z,7.23
2018-10-18T05:06:52.321Z,7.71
2018-10-18T05:07:52.265Z,7.52
2018-10-18T05:08:52.306Z,7.52
2018-10-18T05:09:52.483Z,7.42
2018-10-18T05:10:52.385Z,7.71
2018-10-18T05:11:52.421Z,7.52
2018-10-18T05:12:52.516Z,7.90
2018-10-18T05:13:52.509Z,7.71
2018-10-18T05:14:52.549Z,7.71
2018-10-18T05:15:52.576Z,7.90
2018-10-18T05:16:52.623Z,8.00
2018-10-18T05:17:52.656Z,8.09
2018-10-18T05:18:52.743Z,7.90
2018-10-18T05:19:52.735Z,8.00
2018-10-18T05:20:52.774Z,7.81
2018-10-18T05:21:52.814Z,7.90
2018-10-18T05:22:52.854Z,7.81
2018-10-18T05:23:52.891Z,8.00
2018-10-18T05:24:52.936Z,7.81
2018-10-18T05:25:52.973Z,7.90
2018-10-18T05:26:53.013Z,8.00
2018-10-18T05:27:53.104Z,8.09
2018-10-18T05:28:53.090Z,8.28
2018-10-18T05:29:53.129Z,8.09
2018-10-18T05:30:53.221Z,8.09
2018-10-18T05:31:53.209Z,8.47
2018-10-18T05:32:53.248Z,8.37
2018-10-18T05:33:53.286Z,8.00
2018-10-18T05:34:53.327Z,8.18
2018-10-18T05:35:53.404Z,8.09
2018-10-18T05:36:53.446Z,8.00
2018-10-18T05:37:53.562Z,8.00
2018-10-18T05:38:53.483Z,8.85
2018-10-18T05:39:53.522Z,8.95
2018-10-18T05:40:53.561Z,9.23
2018-10-18T05:41:53.601Z,9.80
2018-10-18T05:42:53.653Z,10.09
2018-10-18T05:43:53.680Z,11.23
2018-10-18T05:44:53.722Z,11.33
2018-10-18T05:45:53.761Z,11.33
2018-10-18T05:46:53.854Z,11.71
2018-10-18T05:47:53.839Z,11.90
2018-10-18T05:48:53.930Z,11.43
2018-10-18T05:49:53.917Z,11.33
2018-10-18T05:50:53.961Z,11.52
2018-10-18T05:51:53.996Z,11.04
2018-10-18T05:52:54.059Z,11.33
2018-10-18T05:53:54.289Z,11.14
2018-10-18T05:54:54.129Z,11.04
2018-10-18T05:55:54.154Z,11.33
2018-10-18T05:56:54.197Z,10.85
2018-10-18T05:57:54.238Z,10.66
2018-10-18T05:58:54.277Z,11.23
2018-10-18T05:59:54.315Z,12.66
2018-10-18T06:00:54.363Z,13.62
2018-10-18T06:01:54.391Z,15.32
2018-10-18T06:02:54.435Z,15.70
2018-10-18T06:03:54.475Z,15.51
2018-10-18T06:04:54.511Z,15.51
2018-10-18T06:05:54.549Z,15.61
2018-10-18T06:06:54.591Z,16.17
2018-10-18T06:07:54.626Z,15.51
2018-10-18T06:08:54.668Z,15.51
2018-10-18T06:09:54.771Z,16.56
2018-10-18T06:10:54.744Z,16.37
2018-10-18T06:11:54.784Z,16.85
2018-10-18T06:12:54.865Z,17.70
2018-10-18T06:13:54.865Z,17.80
2018-10-18T06:14:54.900Z,17.51
2018-10-18T06:15:54.939Z,17.22
2018-10-18T06:16:54.980Z,17.03
2018-10-18T06:17:55.018Z,16.85
2018-10-18T06:18:55.079Z,16.85
2018-10-18T06:19:55.095Z,16.65
2018-10-18T06:20:55.137Z,17.70
2018-10-18T06:21:55.176Z,18.74
2018-10-18T06:22:55.223Z,19.22
2018-10-18T06:23:55.251Z,19.98
2018-10-18T06:24:55.312Z,20.56
2018-10-18T06:25:55.330Z,19.79
2018-10-18T06:26:55.372Z,20.08
2018-10-18T06:27:55.408Z,20.46
2018-10-18T06:28:55.524Z,20.46
2018-10-18T06:29:55.488Z,20.08
2018-10-18T06:30:55.591Z,18.94
2018-10-18T06:31:55.566Z,18.55
2018-10-18T06:32:55.623Z,18.55
2018-10-18T06:33:55.652Z,18.94
2018-10-18T06:34:55.696Z,19.60
2018-10-18T06:35:55.725Z,20.56
2018-10-18T06:36:55.791Z,21.03
2018-10-18T06:37:55.800Z,21.12
2018-10-18T06:38:55.854Z,21.22
2018-10-18T06:39:55.876Z,21.60
2018-10-18T06:40:55.979Z,21.98
2018-10-18T06:41:55.956Z,23.98
2018-10-18T06:42:56.035Z,24.27
2018-10-18T06:43:56.034Z,24.84
2018-10-18T06:44:56.075Z,24.46
2018-10-18T06:45:56.121Z,24.66
2018-10-18T06:46:56.265Z,25.98
2018-10-18T06:47:56.394Z,25.98
2018-10-18T06:48:56.239Z,26.65
2018-10-18T06:49:56.322Z,26.74
2018-10-18T06:50:56.309Z,26.65
2018-10-18T06:51:56.346Z,25.90
2018-10-18T06:52:56.399Z,25.81
2018-10-18T06:53:56.445Z,23.90
2018-10-18T06:54:56.486Z,24.18
2018-10-18T06:55:56.508Z,24.66
2018-10-18T06:56:56.545Z,25.81
2018-10-18T06:57:56.582Z,25.71
2018-10-18T06:58:56.621Z,25.81
2018-10-18T06:59:56.874Z,26.09
2018-10-18T07:00:56.701Z,28.85
2018-10-18T07:01:56.751Z,32.09
2018-10-18T07:02:56.800Z,34.01
2018-10-18T07:03:56.817Z,36.30
2018-10-18T07:04:56.860Z,38.78
2018-10-18T07:05:56.909Z,41.35
2018-10-18T07:06:56.935Z,44.11
2018-10-18T07:07:56.973Z,46.11
2018-10-18T07:08:57.081Z,45.83
2018-10-18T07:09:57.053Z,47.63
2018-10-18T07:10:57.170Z,46.58
2018-10-18T07:11:57.183Z,46.20
2018-10-18T07:12:57.173Z,45.15
2018-10-18T07:13:57.210Z,44.20
2018-10-18T07:14:57.250Z,44.59
2018-10-18T07:15:57.292Z,44.11
2018-10-18T07:16:57.329Z,43.16
2018-10-18T07:17:57.385Z,44.20
2018-10-18T07:18:57.414Z,43.73
2018-10-18T07:19:57.448Z,42.58
2018-10-18T07:20:57.488Z,42.87
2018-10-18T07:21:57.527Z,41.06
2018-10-18T07:22:57.565Z,40.30
2018-10-18T07:23:57.621Z,39.34
2018-10-18T07:24:57.648Z,41.63
2018-10-18T07:25:57.684Z,43.73
2018-10-18T07:26:57.725Z,44.30
2018-10-18T07:27:57.763Z,43.65
2018-10-18T07:28:57.803Z,43.46
2018-10-18T07:29:57.892Z,43.18
2018-10-18T07:30:57.884Z,43.56
2018-10-18T07:31:57.922Z,42.70
2018-10-18T07:32:57.963Z,43.84
2018-10-18T07:33:58.002Z,42.60
2018-10-18T07:34:58.046Z,42.60
2018-10-18T07:35:58.101Z,43.56
2018-10-18T07:36:58.122Z,44.51
2018-10-18T07:37:58.162Z,44.25
2018-10-18T07:38:58.201Z,44.82
2018-10-18T07:39:58.239Z,47.49
2018-10-18T07:40:58.297Z,46.73
2018-10-18T07:41:58.345Z,45.58
2018-10-18T07:42:58.361Z,44.34
2018-10-18T07:43:58.403Z,42.91
2018-10-18T07:44:58.439Z,45.39
2018-10-18T07:45:58.481Z,47.30
2018-10-18T07:46:58.585Z,46.73
2018-10-18T07:47:58.580Z,47.78
2018-10-18T07:48:58.598Z,48.83
2018-10-18T07:49:58.640Z,47.68
2018-10-18T07:50:58.680Z,48.44
2018-10-18T07:51:58.720Z,46.92
2018-10-18T07:52:58.799Z,47.30
2018-10-18T07:53:58.835Z,47.02
2018-10-18T07:54:58.841Z,46.82
2018-10-18T07:55:58.879Z,45.22
2018-10-18T07:56:58.920Z,44.17
2018-10-18T07:57:58.968Z,44.56
2018-10-18T07:58:59.003Z,42.93
2018-10-18T07:59:59.134Z,41.60
2018-10-18T08:00:59.083Z,42.74
2018-10-18T08:01:59.123Z,43.13
2018-10-18T08:02:59.174Z,44.84
2018-10-18T08:03:59.202Z,49.54
2018-10-18T08:04:59.243Z,53.93
2018-10-18T08:05:59.285Z,54.13
2018-10-18T08:06:59.328Z,50.40
2018-10-18T08:07:59.364Z,50.59
2018-10-18T08:08:59.411Z,52.98
2018-10-18T08:09:59.497Z,52.69
2018-10-18T08:10:59.490Z,51.83
2018-10-18T08:11:59.525Z,52.79
2018-10-18T08:12:59.627Z,54.79
2018-10-18T08:13:59.641Z,55.65
2018-10-18T08:14:59.672Z,54.50
2018-10-18T08:15:59.687Z,55.08
2018-10-18T08:16:59.860Z,55.55
2018-10-18T08:17:59.778Z,55.46
2018-10-18T08:18:59.868Z,53.17
2018-10-18T08:19:59.852Z,54.44
2018-10-18T08:20:59.893Z,54.13
2018-10-18T08:21:59.933Z,53.36
2018-10-18T08:22:59.983Z,51.64
2018-10-18T08:24:00.015Z,51.35
2018-10-18T08:25:00.116Z,52.40
2018-10-18T08:26:00.099Z,53.08
2018-10-18T08:27:00.141Z,52.31
2018-10-18T08:28:00.178Z,53.36
2018-10-18T08:29:00.222Z,52.50
2018-10-18T08:30:00.261Z,52.31
2018-10-18T08:31:00.323Z,51.76
2018-10-18T08:32:00.343Z,52.50
2018-10-18T08:33:00.383Z,51.74
2018-10-18T08:34:00.426Z,51.26
2018-10-18T08:35:00.465Z,50.59
2018-10-18T08:36:00.507Z,50.31
2018-10-18T08:37:00.573Z,48.78
2018-10-18T08:38:00.787Z,48.11
2018-10-18T08:39:00.637Z,48.02
2018-10-18T08:40:00.671Z,47.06
2018-10-18T08:41:00.709Z,46.87
2018-10-18T08:42:00.751Z,46.58
2018-10-18T08:43:00.827Z,46.30
2018-10-18T08:44:01.096Z,45.92
2018-10-18T08:45:00.878Z,46.01
2018-10-18T08:46:00.920Z,45.82
2018-10-18T08:47:00.963Z,44.20
2018-10-18T08:48:00.997Z,42.86
2018-10-18T08:49:01.085Z,42.00
2018-10-18T08:50:01.182Z,41.71
2018-10-18T08:51:01.136Z,41.05
2018-10-18T08:52:01.162Z,41.35
2018-10-18T08:53:01.204Z,41.43
2018-10-18T08:54:01.244Z,40.97
2018-10-18T08:55:01.332Z,41.06
2018-10-18T08:56:01.327Z,41.35
2018-10-18T08:57:01.370Z,40.69
2018-10-18T08:58:01.412Z,40.97
2018-10-18T08:59:01.502Z,40.78
2018-10-18T09:00:01.491Z,41.55
2018-10-18T09:01:01.613Z,43.36
2018-10-18T09:02:01.574Z,44.51
2018-10-18T09:03:01.617Z,46.03
2018-10-18T09:04:01.666Z,45.75
2018-10-18T09:05:01.701Z,46.61
2018-10-18T09:06:01.748Z,47.85
2018-10-18T09:07:01.801Z,47.75
2018-10-18T09:08:02.137Z,48.23
2018-10-18T09:09:01.934Z,48.23
2018-10-18T09:10:01.903Z,47.66
2018-10-18T09:11:01.944Z,47.18
2018-10-18T09:12:01.985Z,46.70
2018-10-18T09:13:02.050Z,46.13
2018-10-18T09:14:02.075Z,46.99
2018-10-18T09:15:02.108Z,46.89
2018-10-18T09:16:02.251Z,46.99
2018-10-18T09:17:02.190Z,48.04
2018-10-18T09:18:02.237Z,48.23
2018-10-18T09:19:02.341Z,47.94
2018-10-18T09:20:02.314Z,47.66
2018-10-18T09:21:02.355Z,47.87
2018-10-18T09:22:02.399Z,47.97
2018-10-18T09:23:02.439Z,48.13
2018-10-18T09:24:02.481Z,48.54
2018-10-18T09:25:02.544Z,48.16
2018-10-18T09:26:02.562Z,47.87
2018-10-18T09:27:02.606Z,47.87
2018-10-18T09:28:02.646Z,47.87
2018-10-18T09:29:02.689Z,48.25
2018-10-18T09:30:02.734Z,47.97
2018-10-18T09:31:02.865Z,47.78
2018-10-18T09:32:02.814Z,47.78
2018-10-18T09:33:02.854Z,48.25
2018-10-18T09:34:02.893Z,47.68
2018-10-18T09:35:02.936Z,47.97
2018-10-18T09:36:02.974Z,47.97
2018-10-18T09:37:03.100Z,47.78
2018-10-18T09:38:03.060Z,48.25
2018-10-18T09:39:03.099Z,48.38
2018-10-18T09:40:03.139Z,49.14
2018-10-18T09:41:03.181Z,48.85
2018-10-18T09:42:03.222Z,50.19
2018-10-18T09:43:03.272Z,50.48
2018-10-18T09:44:03.367Z,49.80
2018-10-18T09:45:03.482Z,50.57
2018-10-18T09:46:03.401Z,50.57
2018-10-18T09:47:03.432Z,51.81
2018-10-18T09:48:03.475Z,52.39
2018-10-18T09:49:03.568Z,52.87
2018-10-18T09:50:03.555Z,53.06
2018-10-18T09:51:03.600Z,53.47
2018-10-18T09:52:03.640Z,53.18
2018-10-18T09:53:03.681Z,54.61
2018-10-18T09:54:03.723Z,55.86
2018-10-18T09:55:03.807Z,56.91
2018-10-18T09:56:03.936Z,57.29
2018-10-18T09:57:03.848Z,57.61
2018-10-18T09:58:03.890Z,57.80
2018-10-18T09:59:03.931Z,58.66
2018-10-18T10:00:03.972Z,59.43
2018-10-18T10:01:04.076Z,59.72
2018-10-18T10:02:04.056Z,60.96
2018-10-18T10:03:04.099Z,60.80
2018-10-18T10:04:04.172Z,61.18
2018-10-18T10:05:04.190Z,61.37
2018-10-18T10:06:04.226Z,61.57
2018-10-18T10:07:04.332Z,63.29
2018-10-18T10:08:04.317Z,64.53
2018-10-18T10:09:04.357Z,64.37
2018-10-18T10:10:04.393Z,65.20
2018-10-18T10:11:04.435Z,66.00
2018-10-18T10:12:04.475Z,68.11
2018-10-18T10:13:04.587Z,67.05
2018-10-18T10:14:04.561Z,68.49
2018-10-18T10:15:04.604Z,68.40
2018-10-18T10:16:04.644Z,68.21
2018-10-18T10:17:04.736Z,69.77
2018-10-18T10:18:04.766Z,69.96
2018-10-18T10:19:04.804Z,70.73
2018-10-18T10:20:04.816Z,71.98
2018-10-18T10:21:04.859Z,72.30
2018-10-18T10:22:04.899Z,72.97
2018-10-18T10:23:04.943Z,73.07
2018-10-18T10:24:04.985Z,75.46
2018-10-18T10:25:05.103Z,76.75
2018-10-18T10:26:05.070Z,77.33
2018-10-18T10:27:05.114Z,77.80
2018-10-18T10:28:05.165Z,79.76
2018-10-18T10:29:05.198Z,82.16
2018-10-18T10:30:05.272Z,83.70
2018-10-18T10:31:05.425Z,84.08
2018-10-18T10:32:05.330Z,84.89
2018-10-18T10:33:05.551Z,86.43
2018-10-18T10:34:05.420Z,87.49
2018-10-18T10:35:05.498Z,85.95
2018-10-18T10:36:05.498Z,86.52
2018-10-18T10:37:05.596Z,87.87
2018-10-18T10:38:05.592Z,87.24
2018-10-18T10:39:05.653Z,86.85
2018-10-18T10:40:05.684Z,86.76
2018-10-18T10:41:05.801Z,87.24
2018-10-18T10:42:05.779Z,88.39
2018-10-18T10:43:05.922Z,90.12
2018-10-18T10:44:05.859Z,88.49
2018-10-18T10:45:05.895Z,88.01
2018-10-18T10:46:06.004Z,89.36
2018-10-18T10:47:05.983Z,89.54
2018-10-18T10:48:06.106Z,90.12
2018-10-18T10:49:06.144Z,90.51
2018-10-18T10:50:06.151Z,91.08
2018-10-18T10:51:06.224Z,90.70
2018-10-18T10:52:06.265Z,91.37
2018-10-18T10:53:06.243Z,91.04
2018-10-18T10:54:06.400Z,90.84
2018-10-18T10:55:06.326Z,90.84
2018-10-18T10:56:06.470Z,90.66
2018-10-18T10:57:06.469Z,90.56
2018-10-18T10:58:06.529Z,91.13
2018-10-18T10:59:06.638Z,91.61
2018-10-18T11:00:06.568Z,90.46
2018-10-18T11:01:06.585Z,90.61
2018-10-18T11:02:06.718Z,91.42
2018-10-18T11:03:06.695Z,91.28
2018-10-18T11:04:06.715Z,90.22
2018-10-18T11:05:06.765Z,90.03
2018-10-18T11:06:06.900Z,90.80
2018-10-18T11:07:06.846Z,91.19
2018-10-18T11:08:06.950Z,90.32
2018-10-18T11:09:07.043Z,90.42
2018-10-18T11:10:06.976Z,90.90
2018-10-18T11:11:07.020Z,90.99
2018-10-18T11:12:07.161Z,91.19
2018-10-18T11:13:07.105Z,90.52
2018-10-18T11:14:07.230Z,90.42
2018-10-18T11:15:07.222Z,90.80
2018-10-18T11:16:07.235Z,91.19
2018-10-18T11:17:07.334Z,91.96
2018-10-18T11:18:07.355Z,92.14
2018-10-18T11:19:07.369Z,92.43
2018-10-18T11:20:07.488Z,91.96
2018-10-18T11:21:07.542Z,91.90
2018-10-18T11:22:07.548Z,93.92
2018-10-18T11:23:07.538Z,93.82
2018-10-18T11:24:07.655Z,93.82
2018-10-18T11:25:07.625Z,94.31
2018-10-18T11:26:07.747Z,94.01
2018-10-18T11:27:07.749Z,94.98
2018-10-18T11:28:07.755Z,94.78
2018-10-18T11:29:07.801Z,95.07
2018-10-18T11:30:07.961Z,95.60
2018-10-18T11:31:07.885Z,95.84
2018-10-18T11:32:08.038Z,95.94
2018-10-18T11:33:08.040Z,96.03
2018-10-18T11:34:08.015Z,95.65
2018-10-18T11:35:08.066Z,96.13
2018-10-18T11:36:08.146Z,96.13
2018-10-18T11:37:08.141Z,96.89
2018-10-18T11:38:08.264Z,96.61
2018-10-18T11:39:08.231Z,96.51
2018-10-18T11:40:08.275Z,96.32
2018-10-18T11:41:08.318Z,97.09
2018-10-18T11:42:08.418Z,97.09
2018-10-18T11:43:08.402Z,97.19
2018-10-18T11:44:08.532Z,97.09
2018-10-18T11:45:08.489Z,97.09
2018-10-18T11:46:08.532Z,97.19
2018-10-18T11:47:08.575Z,97.09
2018-10-18T11:48:08.712Z,97.38
2018-10-18T11:49:08.906Z,96.99
2018-10-18T11:50:08.810Z,97.38
2018-10-18T11:51:08.749Z,97.28
2018-10-18T11:52:08.888Z,98.24
2018-10-18T11:53:08.836Z,98.63
2018-10-18T11:54:08.937Z,97.66
2018-10-18T11:55:08.923Z,98.39
2018-10-18T11:56:09.044Z,98.19
2018-10-18T11:57:09.027Z,98.19
2018-10-18T11:58:09.050Z,98.19
2018-10-18T11:59:09.208Z,98.29
2018-10-18T12:00:09.144Z,98.86
2018-10-18T12:01:09.233Z,99.15
2018-10-18T12:02:09.378Z,98.96
2018-10-18T12:03:09.266Z,98.48
2018-10-18T12:04:09.309Z,98.63
2018-10-18T12:05:09.439Z,99.15
2018-10-18T12:06:09.423Z,99.25
2018-10-18T12:07:09.439Z,98.58
2018-10-18T12:08:09.546Z,98.86
2018-10-18T12:09:09.524Z,99.35
2018-10-18T12:10:09.569Z,99.44
2018-10-18T12:11:09.715Z,99.83
2018-10-18T12:12:09.661Z,99.06
2018-10-18T12:13:09.698Z,99.59
2018-10-18T12:14:09.844Z,99.88
2018-10-18T12:15:09.785Z,99.99
2018-10-18T12:16:09.829Z,99.78
2018-10-18T12:17:09.967Z,99.49
2018-10-18T12:18:09.916Z,99.99
2018-10-18T12:19:10.070Z,99.99
2018-10-18T12:20:10.056Z,99.99
2018-10-18T12:21:10.046Z,99.99
2018-10-18T12:22:10.090Z,99.73
2018-10-18T12:23:10.219Z,99.99
2018-10-18T12:24:10.176Z,99.88
2018-10-18T12:25:10.221Z,99.98
2018-10-18T12:26:10.403Z,99.99
2018-10-18T12:27:10.308Z,99.40
2018-10-18T12:28:10.359Z,99.59
2018-10-18T12:29:10.429Z,99.78
2018-10-18T12:30:10.438Z,99.98
2018-10-18T12:31:10.481Z,99.49
2018-10-18T12:32:10.632Z,99.78
2018-10-18T12:33:10.571Z,99.78
2018-10-18T12:34:10.617Z,99.49
2018-10-18T12:35:10.677Z,99.59
2018-10-18T12:36:10.705Z,99.68
2018-10-18T12:37:10.745Z,99.59
2018-10-18T12:38:10.868Z,99.88
2018-10-18T12:39:10.854Z,99.99
2018-10-18T12:40:10.895Z,99.68
2018-10-18T12:41:11.123Z,99.99
2018-10-18T12:42:10.964Z,99.44
2018-10-18T12:43:11.009Z,99.59
2018-10-18T12:44:11.083Z,99.83
2018-10-18T12:45:11.096Z,99.99
2018-10-18T12:46:11.139Z,99.78
2018-10-18T12:47:11.182Z,99.99
2018-10-18T12:48:11.363Z,99.64
2018-10-18T12:49:11.270Z,99.83
2018-10-18T12:50:11.428Z,99.64
2018-10-18T12:51:11.358Z,99.93
2018-10-18T12:52:11.400Z,99.44
2018-10-18T12:53:11.445Z,99.99
2018-10-18T12:54:11.510Z,99.73
2018-10-18T12:55:11.535Z,99.73
2018-10-18T12:56:11.656Z,99.99
2018-10-18T12:57:11.620Z,99.99
2018-10-18T12:58:11.673Z,99.54
2018-10-18T12:59:11.708Z,99.99
2018-10-18T13:00:11.908Z,99.99
2018-10-18T13:01:11.797Z,99.99